Time;durP1;ratioP1;P1;durP2;ratioP2;P2;SDS_P1;SDS_P2;PMS_P1;PMS_P2;Temp;Humidity;BMP_temperature;BMP_pressure;BME280_temperature;BME280_humidity;BME280_pressure;Samples;Min_cycle;Max_cycle;Signal;HPM_P1;HPM_P2
2022/09/03 00:01:27;;;;;;;1.50;1.40;;;24.50;46.10;;;;;;5127622;27;46377;-75
2022/09/03 00:03:57;;;;;;;2.83;1.80;;;24.50;45.70;;;;;;5127344;27;45209;-76
2022/09/03 00:06:25;;;;;;;1.67;1.45;;;24.50;45.80;;;;;;5127641;27;45204;-75
2022/09/03 00:08:58;;;;;;;3.13;1.90;;;24.50;46.50;;;;;;5127681;27;45331;-75
2022/09/03 00:11:27;;;;;;;2.25;1.50;;;24.50;46.10;;;;;;5126928;27;45370;-76
2022/09/03 00:13:57;;;;;;;1.40;1.30;;;24.50;46.00;;;;;;5127370;27;45283;-75
2022/09/03 00:16:25;;;;;;;1.80;1.35;;;24.40;45.80;;;;;;5127602;27;45484;-75
2022/09/03 00:18:55;;;;;;;2.60;1.60;;;24.40;46.00;;;;;;5127872;27;45288;-75
2022/09/03 00:21:29;;;;;;;1.77;1.45;;;24.40;45.90;;;;;;5142976;27;45669;-75
2022/09/03 00:23:58;;;;;;;1.63;1.50;;;24.40;46.00;;;;;;5146419;27;45433;-75
2022/09/03 00:26:27;;;;;;;1.67;1.58;;;24.40;46.00;;;;;;5138391;27;45325;-75
2022/09/03 00:28:59;;;;;;;1.50;1.40;;;24.40;46.00;;;;;;5148329;27;45304;-75
2022/09/03 00:31:29;;;;;;;2.50;1.30;;;24.40;46.10;;;;;;5132385;27;46411;-76
2022/09/03 00:33:57;;;;;;;1.60;1.50;;;24.40;46.10;;;;;;5130643;27;45294;-75
2022/09/03 00:36:25;;;;;;;1.42;1.33;;;24.40;46.30;;;;;;5130787;27;45269;-75
2022/09/03 00:38:52;;;;;;;1.60;1.50;;;24.40;46.00;;;;;;5145484;27;45319;-75
2022/09/03 00:41:29;;;;;;;1.92;1.30;;;24.30;46.00;;;;;;5148650;27;45496;-75
2022/09/03 00:44:04;;;;;;;1.60;1.50;;;24.30;46.20;;;;;;5151326;27;45257;-75
2022/09/03 00:46:34;;;;;;;1.27;1.27;;;24.30;46.10;;;;;;5151683;27;45187;-75
2022/09/03 00:49:21;;;;;;;1.85;1.40;;;24.30;46.20;;;;;;5151878;27;45279;-75
2022/09/03 00:51:51;;;;;;;1.77;1.30;;;24.30;46.20;;;;;;5151304;27;45290;-75
2022/09/03 00:54:20;;;;;;;1.67;1.58;;;24.30;46.80;;;;;;5151377;27;45202;-76
2022/09/03 00:56:51;;;;;;;1.40;1.30;;;24.30;46.20;;;;;;5151289;27;45370;-75
2022/09/03 00:59:25;;;;;;;1.13;1.00;;;24.30;46.30;;;;;;5151511;27;45183;-75
2022/09/03 01:01:58;;;;;;;1.42;1.33;;;24.30;46.40;;;;;;5151064;27;46386;-75
2022/09/03 01:04:31;;;;;;;4.57;1.27;;;24.30;46.80;;;;;;5150879;27;45171;-75
2022/09/03 01:07:01;;;;;;;2.05;1.25;;;24.30;46.40;;;;;;5151231;27;45285;-76
2022/09/03 01:09:35;;;;;;;1.50;1.40;;;24.20;46.50;;;;;;5151402;27;45122;-75
2022/09/03 01:12:12;;;;;;;1.00;1.00;;;24.20;46.30;;;;;;5150924;27;46601;-75
2022/09/03 01:14:44;;;;;;;1.83;1.33;;;24.20;46.50;;;;;;5150919;27;45186;-76
2022/09/03 01:17:16;;;;;;;1.30;1.10;;;24.20;46.60;;;;;;5150971;27;45279;-75
2022/09/03 01:20:03;;;;;;;2.33;1.40;;;24.20;46.50;;;;;;5150995;27;45319;-75
2022/09/03 01:22:55;;;;;;;1.23;1.13;;;24.20;46.50;;;;;;5150711;27;46693;-75
2022/09/03 01:25:30;;;;;;;1.40;1.30;;;24.20;47.10;;;;;;5150552;27;45350;-75
2022/09/03 01:28:08;;;;;;;1.10;1.10;;;24.20;46.50;;;;;;5150799;27;45246;-75
2022/09/03 01:30:37;;;;;;;1.48;1.33;;;24.20;46.80;;;;;;5151115;27;45517;-75
2022/09/03 01:33:07;;;;;;;1.48;1.38;;;24.20;46.70;;;;;;5150424;27;45688;-75
2022/09/03 01:35:36;;;;;;;1.10;1.00;;;24.20;46.80;;;;;;5150522;27;45346;-75
2022/09/03 01:38:13;;;;;;;1.30;1.20;;;24.20;46.70;;;;;;5150512;27;45458;-75
2022/09/03 01:40:43;;;;;;;1.45;1.35;;;24.10;46.60;;;;;;5150917;27;45489;-75
2022/09/03 01:43:21;;;;;;;1.27;1.17;;;24.10;46.80;;;;;;5149766;27;45633;-75
2022/09/03 01:45:53;;;;;;;1.50;1.40;;;24.10;46.90;;;;;;5150194;27;45176;-75
2022/09/03 01:48:41;;;;;;;1.40;1.30;;;24.10;46.60;;;;;;5150558;27;45297;-75
2022/09/03 01:51:16;;;;;;;1.30;1.20;;;24.10;46.60;;;;;;5150687;27;45394;-75
2022/09/03 01:54:05;;;;;;;1.30;1.20;;;24.10;46.90;;;;;;5150107;27;46348;-75
2022/09/03 01:56:38;;;;;;;1.05;1.05;;;24.10;46.70;;;;;;5150220;27;45335;-75
2022/09/03 01:59:09;;;;;;;1.30;1.20;;;24.10;46.70;;;;;;5150373;27;45426;-75
2022/09/03 02:01:37;;;;;;;1.20;1.20;;;24.10;46.80;;;;;;5150589;27;45182;-76
2022/09/03 02:04:14;;;;;;;1.08;1.08;;;24.10;46.90;;;;;;5149923;27;46371;-75
2022/09/03 02:06:41;;;;;;;1.50;1.40;;;24.10;46.80;;;;;;5150048;27;45315;-76
2022/09/03 02:09:08;;;;;;;1.15;1.13;;;24.10;47.00;;;;;;5147583;27;45357;-75
2022/09/03 02:11:36;;;;;;;1.20;1.10;;;24.00;46.80;;;;;;5150246;27;45472;-75
2022/09/03 02:14:03;;;;;;;1.13;1.00;;;24.00;46.70;;;;;;5149081;27;46699;-75
2022/09/03 02:16:32;;;;;;;1.40;1.38;;;24.00;46.90;;;;;;5149365;27;45248;-75
2022/09/03 02:19:01;;;;;;;1.30;1.20;;;24.00;46.90;;;;;;5149922;27;45239;-75
2022/09/03 02:21:30;;;;;;;1.35;1.20;;;24.00;46.90;;;;;;5150185;27;45117;-75
2022/09/03 02:23:57;;;;;;;1.20;1.20;;;24.00;47.00;;;;;;5149494;27;45409;-75
2022/09/03 02:26:24;;;;;;;1.30;1.13;;;24.00;46.90;;;;;;5149606;27;45397;-75
2022/09/03 02:28:51;;;;;;;1.30;1.30;;;24.00;46.90;;;;;;5149823;27;45192;-75
2022/09/03 02:31:18;;;;;;;1.58;1.08;;;24.00;46.80;;;;;;5149833;27;45263;-75
2022/09/03 02:33:47;;;;;;;1.08;1.08;;;24.00;46.90;;;;;;5141826;27;46715;-75
2022/09/03 02:36:15;;;;;;;2.13;1.55;;;23.90;46.80;;;;;;5128650;27;45337;-75
2022/09/03 02:38:42;;;;;;;1.13;1.10;;;24.00;46.90;;;;;;5128586;27;45256;-75
2022/09/03 02:41:12;;;;;;;1.30;1.10;;;24.00;46.80;;;;;;5129066;27;45453;-75
2022/09/03 02:43:40;;;;;;;1.30;1.20;;;23.90;46.80;;;;;;5128511;27;45434;-75
2022/09/03 02:46:10;;;;;;;1.10;1.10;;;23.90;47.40;;;;;;5128654;27;45131;-76
2022/09/03 02:48:40;;;;;;;1.23;1.13;;;23.90;46.90;;;;;;5128763;27;45290;-76
2022/09/03 02:51:08;;;;;;;1.65;1.15;;;23.90;46.80;;;;;;5128905;27;45324;-75
2022/09/03 02:53:35;;;;;;;1.10;1.10;;;23.90;46.80;;;;;;5128378;27;45476;-75
2022/09/03 02:56:02;;;;;;;1.25;1.15;;;23.90;46.90;;;;;;5128341;27;45294;-76
2022/09/03 02:58:30;;;;;;;1.40;1.30;;;23.90;47.00;;;;;;5128504;27;45348;-75
2022/09/03 03:00:57;;;;;;;1.33;1.23;;;23.90;46.80;;;;;;5128582;27;45190;-75
2022/09/03 03:03:24;;;;;;;1.40;1.30;;;23.90;47.00;;;;;;5127519;27;45623;-75
2022/09/03 03:05:51;;;;;;;1.13;1.10;;;23.90;46.90;;;;;;5127813;27;45293;-75
2022/09/03 03:08:23;;;;;;;1.35;1.23;;;23.90;46.70;;;;;;5128439;27;45241;-75
2022/09/03 03:10:52;;;;;;;1.23;1.17;;;23.90;46.90;;;;;;5128686;27;45376;-75
2022/09/03 03:13:19;;;;;;;1.88;0.90;;;23.90;46.90;;;;;;5128036;27;45552;-75
2022/09/03 03:15:46;;;;;;;0.98;0.98;;;23.90;46.80;;;;;;5128397;27;45343;-75
2022/09/03 03:18:13;;;;;;;1.00;1.00;;;23.90;46.90;;;;;;5128187;27;45324;-75
2022/09/03 03:20:40;;;;;;;1.17;1.17;;;23.90;47.00;;;;;;5137825;27;45470;-75
2022/09/03 03:23:07;;;;;;;1.05;1.00;;;23.90;46.90;;;;;;5148722;27;46401;-75
2022/09/03 03:25:36;;;;;;;1.38;1.20;;;23.90;47.10;;;;;;5148563;27;45292;-75
2022/09/03 03:28:03;;;;;;;1.48;1.00;;;23.90;46.90;;;;;;5148972;27;45165;-75
2022/09/03 03:30:30;;;;;;;1.20;1.10;;;23.80;46.90;;;;;;5149017;27;45337;-75
2022/09/03 03:32:57;;;;;;;1.63;1.20;;;23.90;47.10;;;;;;5148389;27;46377;-75
2022/09/03 03:35:24;;;;;;;1.00;1.00;;;23.80;46.80;;;;;;5148518;27;45334;-75
2022/09/03 03:37:51;;;;;;;1.30;1.20;;;23.80;47.00;;;;;;5142240;27;45236;-75
2022/09/03 03:40:19;;;;;;;1.20;1.20;;;23.90;47.10;;;;;;5128039;27;45190;-75
2022/09/03 03:42:47;;;;;;;1.10;1.02;;;23.80;46.80;;;;;;5127586;27;47889;-75
2022/09/03 03:45:14;;;;;;;1.15;1.15;;;23.80;47.00;;;;;;5127487;27;45324;-75
2022/09/03 03:47:41;;;;;;;1.42;1.10;;;23.80;46.80;;;;;;5127748;27;45176;-75
2022/09/03 03:50:08;;;;;;;1.20;1.10;;;23.80;46.90;;;;;;5122859;27;45525;-75
2022/09/03 03:52:35;;;;;;;1.40;1.20;;;23.80;46.90;;;;;;5126225;27;46335;-76
2022/09/03 03:55:02;;;;;;;1.00;1.00;;;23.80;46.80;;;;;;5127514;27;45222;-76
2022/09/03 03:57:30;;;;;;;1.35;1.25;;;23.80;47.00;;;;;;5127864;27;45407;-75
2022/09/03 03:59:58;;;;;;;1.27;1.17;;;23.70;46.90;;;;;;5127939;27;45482;-75
2022/09/03 04:02:25;;;;;;;1.25;1.20;;;23.70;47.50;;;;;;5126693;27;45291;-75
2022/09/03 04:04:52;;;;;;;1.10;1.10;;;23.80;46.90;;;;;;5127369;27;45406;-75
2022/09/03 04:07:19;;;;;;;1.08;1.08;;;23.80;46.90;;;;;;5129144;27;45333;-75
2022/09/03 04:09:46;;;;;;;1.80;1.20;;;23.70;46.90;;;;;;5131520;27;45207;-75
2022/09/03 04:12:12;;;;;;;1.42;1.30;;;23.70;47.00;;;;;;5130951;27;45286;-75
2022/09/03 04:14:40;;;;;;;1.25;1.15;;;23.70;47.60;;;;;;5131008;27;45146;-75
2022/09/03 04:17:08;;;;;;;1.10;1.10;;;23.70;47.10;;;;;;5131290;27;45315;-75
2022/09/03 04:19:35;;;;;;;1.10;1.00;;;23.70;47.10;;;;;;5131320;27;45349;-75
2022/09/03 04:22:02;;;;;;;1.10;1.10;;;23.70;47.10;;;;;;5130825;27;46378;-75
2022/09/03 04:24:29;;;;;;;1.10;1.10;;;23.70;47.00;;;;;;5124501;27;45196;-75
2022/09/03 04:26:56;;;;;;;1.00;1.00;;;23.70;47.00;;;;;;5125787;27;45413;-75
2022/09/03 04:29:23;;;;;;;1.10;1.00;;;23.70;47.10;;;;;;5131014;27;45470;-75
2022/09/03 04:34:36;;;;;;;1.00;1.00;;;23.70;47.10;;;;;;5112632;27;45328;-75
2022/09/03 04:37:02;;;;;;;1.02;1.02;;;23.70;47.10;;;;;;5110218;27;45142;-75
2022/09/03 04:39:29;;;;;;;1.38;1.10;;;23.70;47.00;;;;;;5130193;27;45173;-75
2022/09/03 04:41:56;;;;;;;1.02;1.02;;;23.70;47.10;;;;;;5129682;27;45370;-76
2022/09/03 04:44:23;;;;;;;0.90;0.90;;;23.70;47.30;;;;;;5130262;27;45367;-76
2022/09/03 04:46:50;;;;;;;1.10;1.10;;;23.70;47.10;;;;;;5130662;27;45332;-76
2022/09/03 04:49:16;;;;;;;1.00;1.00;;;23.70;47.00;;;;;;5130670;27;45403;-76
2022/09/03 04:51:45;;;;;;;0.90;0.90;;;23.70;47.20;;;;;;5130386;27;45242;-75
2022/09/03 04:54:12;;;;;;;1.30;1.20;;;23.70;47.90;;;;;;5130377;27;45323;-76
2022/09/03 04:56:39;;;;;;;1.40;1.27;;;23.70;47.20;;;;;;5130620;27;45428;-75
2022/09/03 04:59:06;;;;;;;0.95;0.95;;;23.70;47.20;;;;;;5131040;27;45419;-75
2022/09/03 05:01:34;;;;;;;1.02;1.02;;;23.70;47.10;;;;;;5130284;27;45532;-74
2022/09/03 05:04:01;;;;;;;0.90;0.90;;;23.70;47.10;;;;;;5130240;27;45184;-75
2022/09/03 05:06:28;;;;;;;1.20;1.10;;;23.70;47.10;;;;;;5130528;27;45379;-74
2022/09/03 05:08:57;;;;;;;1.00;1.00;;;23.70;47.00;;;;;;5130349;27;45261;-75
2022/09/03 05:11:24;;;;;;;1.10;1.10;;;23.70;47.10;;;;;;5130042;27;45535;-75
2022/09/03 05:13:51;;;;;;;1.10;1.10;;;23.70;47.10;;;;;;5130118;27;45128;-74
2022/09/03 05:16:18;;;;;;;1.20;1.20;;;23.70;47.10;;;;;;5130274;27;45216;-75
2022/09/03 05:18:45;;;;;;;1.30;1.13;;;23.70;47.10;;;;;;5128785;27;45306;-75
2022/09/03 05:21:13;;;;;;;1.38;1.27;;;23.70;47.20;;;;;;5150795;27;45387;-75
2022/09/03 05:23:41;;;;;;;1.00;1.00;;;23.70;47.20;;;;;;5150754;27;45187;-75
2022/09/03 05:26:10;;;;;;;1.13;1.13;;;23.70;47.10;;;;;;5138934;27;45351;-75
2022/09/03 05:28:38;;;;;;;1.15;1.15;;;23.70;47.20;;;;;;5150211;27;45214;-75
2022/09/03 05:31:06;;;;;;;1.25;1.15;;;23.70;47.10;;;;;;5150415;27;45567;-75
2022/09/03 05:33:34;;;;;;;1.10;1.02;;;23.70;47.20;;;;;;5144648;27;45286;-75
2022/09/03 05:36:01;;;;;;;1.50;1.20;;;23.60;47.00;;;;;;5129895;27;45362;-75
2022/09/03 05:38:28;;;;;;;1.17;1.08;;;23.60;47.20;;;;;;5129414;27;45304;-75
2022/09/03 05:40:58;;;;;;;1.20;1.10;;;23.60;47.90;;;;;;5134526;27;46628;-75
2022/09/03 05:43:27;;;;;;;1.13;1.02;;;23.60;47.20;;;;;;5131189;27;45282;-75
2022/09/03 05:45:59;;;;;;;1.20;1.10;;;23.60;47.20;;;;;;5130867;27;45239;-75
2022/09/03 05:48:26;;;;;;;1.10;1.10;;;23.60;47.30;;;;;;5133865;27;45486;-76
2022/09/03 05:51:00;;;;;;;1.20;1.10;;;23.60;47.30;;;;;;5134080;27;45472;-74
2022/09/03 05:53:28;;;;;;;1.35;1.25;;;23.60;47.40;;;;;;5133716;27;45271;-75
2022/09/03 05:55:56;;;;;;;1.02;1.02;;;23.60;47.40;;;;;;5131659;27;45211;-75
2022/09/03 05:58:24;;;;;;;1.23;1.13;;;23.60;47.30;;;;;;5132481;27;45217;-75
2022/09/03 06:00:52;;;;;;;1.20;1.20;;;23.60;47.30;;;;;;5129455;27;47038;-74
2022/09/03 06:03:19;;;;;;;1.63;1.20;;;23.60;47.30;;;;;;5129271;27;45265;-75
2022/09/03 06:05:50;;;;;;;1.35;1.25;;;23.60;47.30;;;;;;5129248;27;45191;-75
2022/09/03 06:08:17;;;;;;;1.10;1.10;;;23.60;47.30;;;;;;5129496;27;45295;-75
2022/09/03 06:10:44;;;;;;;2.05;1.25;;;23.60;47.30;;;;;;5128991;27;45331;-74
2022/09/03 06:13:10;;;;;;;3.15;1.80;;;23.70;47.30;;;;;;5128814;27;45169;-74
2022/09/03 06:15:37;;;;;;;2.45;2.25;;;23.60;50.60;;;;;;5129109;27;45324;-74
2022/09/03 06:18:06;;;;;;;5.10;1.70;;;23.50;51.80;;;;;;5128988;27;45305;-75
2022/09/03 06:20:33;;;;;;;3.40;2.00;;;23.50;52.60;;;;;;5143372;27;46374;-75
2022/09/03 06:23:00;;;;;;;3.17;2.20;;;23.40;53.00;;;;;;5148841;27;45222;-74
2022/09/03 06:25:27;;;;;;;2.45;1.52;;;23.40;53.30;;;;;;5137737;27;45247;-75
2022/09/03 06:27:54;;;;;;;4.32;2.08;;;23.40;53.70;;;;;;5149781;27;45311;-74
2022/09/03 06:30:22;;;;;;;5.22;2.00;;;23.30;54.00;;;;;;5142605;27;45321;-74
2022/09/03 06:32:51;;;;;;;4.45;2.10;;;23.30;54.20;;;;;;5129697;27;45588;-74
2022/09/03 06:35:19;;;;;;;2.65;1.85;;;23.30;54.30;;;;;;5128612;27;45412;-74
2022/09/03 06:37:46;;;;;;;2.17;1.80;;;23.30;54.00;;;;;;5128487;27;45312;-74
2022/09/03 06:40:13;;;;;;;2.85;1.90;;;23.30;54.20;;;;;;5128461;27;45231;-74
2022/09/03 06:42:40;;;;;;;2.97;2.10;;;23.30;54.20;;;;;;5128299;27;45246;-74
2022/09/03 06:45:08;;;;;;;5.72;2.30;;;23.30;54.20;;;;;;5128940;27;45214;-74
2022/09/03 06:47:35;;;;;;;2.50;2.00;;;23.30;54.40;;;;;;5128578;27;45528;-74
2022/09/03 06:50:02;;;;;;;7.20;2.20;;;23.30;54.40;;;;;;5128052;27;45308;-73
2022/09/03 06:52:30;;;;;;;4.18;2.40;;;23.30;54.60;;;;;;5128179;27;45333;-74
2022/09/03 06:54:57;;;;;;;3.03;2.20;;;23.30;54.60;;;;;;5128380;27;45146;-73
2022/09/03 06:57:24;;;;;;;1.92;1.80;;;23.30;54.80;;;;;;5128704;27;45512;-74
2022/09/03 06:59:52;;;;;;;2.08;1.88;;;23.30;54.60;;;;;;5128019;27;46397;-74
2022/09/03 07:02:21;;;;;;;3.00;1.98;;;23.30;54.80;;;;;;5128161;27;45261;-74
2022/09/03 07:04:49;;;;;;;2.33;2.05;;;23.30;54.70;;;;;;5128239;27;45311;-74
2022/09/03 07:07:15;;;;;;;2.03;1.92;;;23.30;54.70;;;;;;5128008;27;45628;-74
2022/09/03 07:09:44;;;;;;;2.28;2.05;;;23.30;54.90;;;;;;5127316;27;46406;-74
2022/09/03 07:12:11;;;;;;;2.95;2.00;;;23.30;54.90;;;;;;5127939;27;45188;-74
2022/09/03 07:14:38;;;;;;;2.17;2.08;;;23.30;55.00;;;;;;5128219;27;45288;-73
2022/09/03 07:17:04;;;;;;;2.97;2.00;;;23.40;54.90;;;;;;5128376;27;45408;-74
2022/09/03 07:19:33;;;;;;;2.20;2.10;;;23.30;55.50;;;;;;5134375;27;47255;-73
2022/09/03 07:22:00;;;;;;;3.63;2.05;;;23.40;55.00;;;;;;5155258;27;45196;-73
2022/09/03 07:24:28;;;;;;;3.10;2.50;;;23.40;55.20;;;;;;5147396;27;45214;-73
2022/09/03 07:26:56;;;;;;;3.05;2.30;;;23.40;55.40;;;;;;5145331;27;45404;-74
2022/09/03 07:29:23;;;;;;;2.50;2.10;;;23.40;55.30;;;;;;5150342;27;45737;-74
2022/09/03 07:31:51;;;;;;;4.35;2.28;;;23.40;55.30;;;;;;5126734;27;45384;-74
2022/09/03 07:34:18;;;;;;;4.47;1.98;;;23.40;55.30;;;;;;5140304;27;45267;-75
2022/09/03 07:36:46;;;;;;;5.25;2.40;;;23.40;55.30;;;;;;5148881;27;45682;-75
2022/09/03 07:39:13;;;;;;;2.28;2.00;;;23.50;55.20;;;;;;5148081;27;45511;-74
2022/09/03 07:41:42;;;;;;;5.65;2.78;;;23.50;55.10;;;;;;5148667;27;45194;-74
2022/09/03 07:44:12;;;;;;;2.95;2.22;;;23.50;55.40;;;;;;5152343;27;45302;-74
2022/09/03 07:46:39;;;;;;;3.58;1.85;;;23.50;55.10;;;;;;5152216;27;45192;-74
2022/09/03 07:49:06;;;;;;;1.85;1.70;;;23.50;55.20;;;;;;5152098;27;46660;-74
2022/09/03 07:51:34;;;;;;;1.80;1.70;;;23.60;55.30;;;;;;5151702;27;45398;-75
2022/09/03 07:54:02;;;;;;;4.40;1.65;;;23.60;54.50;;;;;;5152097;27;45372;-74
2022/09/03 07:56:30;;;;;;;2.10;1.70;;;23.70;54.50;;;;;;5151107;27;45251;-73
2022/09/03 07:58:58;;;;;;;3.42;1.67;;;23.70;54.00;;;;;;5151381;27;45468;-75
2022/09/03 08:01:27;;;;;;;1.83;1.63;;;23.70;53.70;;;;;;5151746;27;45302;-75
2022/09/03 08:03:54;;;;;;;2.28;1.80;;;23.80;53.50;;;;;;5152119;27;45265;-75
2022/09/03 08:06:21;;;;;;;2.28;1.60;;;23.80;53.30;;;;;;5152033;27;45385;-75
2022/09/03 08:08:48;;;;;;;2.53;1.60;;;23.80;53.50;;;;;;5151655;27;46409;-75
2022/09/03 08:11:15;;;;;;;1.50;1.40;;;23.90;53.40;;;;;;5151962;27;45352;-75
2022/09/03 08:13:43;;;;;;;1.65;1.55;;;23.90;53.30;;;;;;5151707;27;45399;-75
2022/09/03 08:16:10;;;;;;;1.85;1.20;;;24.00;52.90;;;;;;5151884;27;45381;-74
2022/09/03 08:18:38;;;;;;;1.65;1.50;;;23.90;53.40;;;;;;5151644;27;46737;-75
2022/09/03 08:21:07;;;;;;;1.70;1.60;;;23.90;53.10;;;;;;5151388;27;45244;-74
2022/09/03 08:23:36;;;;;;;1.42;1.33;;;24.00;53.20;;;;;;5151805;27;45315;-74
2022/09/03 08:26:03;;;;;;;2.13;1.58;;;24.00;53.10;;;;;;5140369;27;45452;-75
2022/09/03 08:28:33;;;;;;;2.03;1.30;;;24.00;53.20;;;;;;5151423;27;45370;-75
2022/09/03 08:31:04;;;;;;;2.63;1.50;;;24.10;53.20;;;;;;5140408;27;45184;-76
2022/09/03 08:33:37;;;;;;;1.40;1.30;;;24.10;53.70;;;;;;5131092;27;45363;-74
2022/09/03 08:36:06;;;;;;;1.75;1.50;;;24.10;53.00;;;;;;5130930;27;45422;-74
2022/09/03 08:38:34;;;;;;;1.50;1.20;;;24.10;52.90;;;;;;5130097;27;46618;-75
2022/09/03 08:41:09;;;;;;;1.95;1.50;;;24.10;52.90;;;;;;5130835;27;45196;-75
2022/09/03 08:43:40;;;;;;;1.50;1.40;;;24.10;52.70;;;;;;5130777;27;45316;-76
2022/09/03 08:46:07;;;;;;;1.60;1.50;;;24.10;52.80;;;;;;5130579;27;45376;-75
2022/09/03 08:48:34;;;;;;;1.77;1.35;;;24.20;52.90;;;;;;5130423;27;45462;-76
2022/09/03 08:51:02;;;;;;;1.65;1.48;;;24.20;53.00;;;;;;5130535;27;45311;-74
2022/09/03 08:53:34;;;;;;;2.50;1.70;;;24.20;53.10;;;;;;5129423;27;45313;-76
2022/09/03 08:56:04;;;;;;;2.40;1.20;;;24.20;53.20;;;;;;5130702;27;45177;-76
2022/09/03 08:58:32;;;;;;;1.40;1.30;;;24.20;52.90;;;;;;5130116;27;46655;-75
2022/09/03 09:01:01;;;;;;;1.85;1.38;;;24.20;52.90;;;;;;5130311;27;45130;-75
2022/09/03 09:03:47;;;;;;;3.53;1.50;;;24.30;53.00;;;;;;5130551;27;45192;-75
2022/09/03 09:06:19;;;;;;;1.35;1.25;;;24.30;52.90;;;;;;5130338;27;45426;-76
2022/09/03 09:08:55;;;;;;;1.83;1.60;;;24.30;52.60;;;;;;5129987;27;45373;-74
2022/09/03 09:11:27;;;;;;;1.50;1.40;;;24.30;52.60;;;;;;5130006;27;45273;-75
2022/09/03 09:13:57;;;;;;;1.80;1.70;;;24.30;52.80;;;;;;5130178;27;45266;-75
2022/09/03 09:16:29;;;;;;;1.30;1.30;;;24.30;52.80;;;;;;5130272;27;45231;-75
2022/09/03 09:19:01;;;;;;;1.50;1.40;;;24.30;52.90;;;;;;5130875;27;46648;-75
2022/09/03 09:21:28;;;;;;;1.35;1.25;;;24.30;52.90;;;;;;5150696;27;45339;-75
2022/09/03 09:23:57;;;;;;;2.88;1.30;;;24.30;53.50;;;;;;5149610;27;45215;-75
2022/09/03 09:26:24;;;;;;;1.58;1.42;;;24.30;53.00;;;;;;5141006;27;45338;-76
2022/09/03 09:28:53;;;;;;;2.00;1.27;;;24.30;52.90;;;;;;5150515;27;46624;-75
2022/09/03 09:31:20;;;;;;;1.30;1.20;;;24.20;52.90;;;;;;5135917;27;45273;-76
2022/09/03 09:33:47;;;;;;;2.30;1.60;;;24.20;53.60;;;;;;5137684;27;45291;-75
2022/09/03 09:36:15;;;;;;;1.98;1.35;;;24.20;53.10;;;;;;5150902;27;45354;-75
2022/09/03 09:38:42;;;;;;;1.92;1.42;;;24.20;52.90;;;;;;5150091;27;46719;-75
2022/09/03 09:41:12;;;;;;;1.38;1.27;;;24.20;53.00;;;;;;5150336;27;45274;-75
2022/09/03 09:43:39;;;;;;;1.50;1.40;;;24.20;52.90;;;;;;5150729;27;45240;-75
2022/09/03 09:46:08;;;;;;;4.30;1.50;;;24.20;53.50;;;;;;5150567;27;45331;-75
2022/09/03 09:48:39;;;;;;;1.70;1.60;;;24.20;53.70;;;;;;5150454;27;45465;-76
2022/09/03 09:51:07;;;;;;;3.40;1.60;;;24.20;54.90;;;;;;5150413;27;45297;-76
2022/09/03 09:53:35;;;;;;;3.00;1.50;;;24.20;54.70;;;;;;5150492;27;45184;-76
2022/09/03 09:56:02;;;;;;;1.42;1.33;;;24.20;54.90;;;;;;5150564;27;45168;-75
2022/09/03 09:58:31;;;;;;;5.90;1.88;;;24.10;55.60;;;;;;5149793;27;46340;-74
2022/09/03 10:01:03;;;;;;;2.20;1.73;;;24.10;56.00;;;;;;5149380;27;45168;-75
2022/09/03 10:03:34;;;;;;;4.03;1.70;;;24.10;56.70;;;;;;5149897;27;45275;-76
2022/09/03 10:06:52;;;;;;;1.30;1.20;;;24.10;56.70;;;;;;5149358;27;45243;-75
2022/09/03 10:08:51;;;;;;;3.17;1.30;;;24.00;56.90;;;;;;5148986;27;46633;-75
2022/09/03 10:11:19;;;;;;;2.75;1.50;;;23.90;57.00;;;;;;5149290;27;45200;-76
2022/09/03 10:13:48;;;;;;;5.72;1.70;;;23.90;57.00;;;;;;5149928;27;45196;-75
2022/09/03 10:16:20;;;;;;;3.67;2.28;;;23.90;57.90;;;;;;5149990;27;45342;-75
2022/09/03 10:18:49;;;;;;;3.78;1.80;;;23.80;58.70;;;;;;5149521;27;45282;-76
2022/09/03 10:21:18;;;;;;;5.07;1.63;;;23.80;59.70;;;;;;5128932;27;45313;-75
2022/09/03 10:23:50;;;;;;;2.17;1.50;;;23.80;58.90;;;;;;5129029;27;45253;-76
2022/09/03 10:26:17;;;;;;;5.28;1.75;;;23.70;59.10;;;;;;5138791;27;45487;-76
2022/09/03 10:28:44;;;;;;;3.33;1.50;;;23.70;59.10;;;;;;5149584;27;47700;-76
2022/09/03 10:31:26;;;;;;;4.15;1.40;;;23.70;59.20;;;;;;5148320;27;45272;-77
2022/09/03 10:33:55;;;;;;;2.97;1.58;;;23.70;59.70;;;;;;5140816;27;45316;-77
2022/09/03 10:36:25;;;;;;;3.35;1.50;;;23.60;59.10;;;;;;5129223;27;45236;-75
2022/09/03 10:38:54;;;;;;;2.35;1.25;;;23.60;58.80;;;;;;5128403;27;46471;-76
2022/09/03 10:41:28;;;;;;;2.90;1.25;;;23.60;59.00;;;;;;5128658;27;45233;-76
2022/09/03 10:44:13;;;;;;;2.97;1.10;;;23.50;58.90;;;;;;5128577;27;45358;-75
2022/09/03 10:46:47;;;;;;;1.70;1.10;;;23.50;59.30;;;;;;5128774;27;45194;-74
2022/09/03 10:49:32;;;;;;;1.45;1.08;;;23.50;58.90;;;;;;5128332;27;45209;-74
2022/09/03 10:52:03;;;;;;;2.05;1.10;;;23.50;59.90;;;;;;5145454;27;45600;-73
2022/09/03 10:54:39;;;;;;;1.15;1.00;;;23.40;59.40;;;;;;5149029;27;45436;-74
2022/09/03 10:57:10;;;;;;;0.80;0.80;;;23.40;60.10;;;;;;5127351;27;45520;-74
2022/09/03 10:59:46;;;;;;;1.75;0.98;;;23.40;60.40;;;;;;5133322;27;45199;-76
2022/09/03 11:02:25;;;;;;;1.85;0.90;;;23.40;60.00;;;;;;5148585;27;45345;-76
2022/09/03 11:04:54;;;;;;;1.20;1.10;;;23.40;60.50;;;;;;5146187;27;45313;-76
2022/09/03 11:07:22;;;;;;;1.58;1.00;;;23.40;61.00;;;;;;5149110;27;45255;-75
2022/09/03 11:09:51;;;;;;;1.10;1.02;;;23.40;61.00;;;;;;5148674;27;45654;-75
2022/09/03 11:12:20;;;;;;;1.00;0.95;;;23.40;60.80;;;;;;5148510;27;45378;-75
2022/09/03 11:14:50;;;;;;;1.45;0.98;;;23.40;61.80;;;;;;5148317;27;45191;-75
2022/09/03 11:17:22;;;;;;;2.00;1.00;;;23.40;61.10;;;;;;5149207;27;45429;-74
2022/09/03 11:19:51;;;;;;;0.90;0.90;;;23.40;60.70;;;;;;5148143;27;47323;-75
2022/09/03 11:22:18;;;;;;;1.38;1.00;;;23.50;61.90;;;;;;5147637;27;45289;-75
2022/09/03 11:24:46;;;;;;;1.25;1.15;;;23.50;61.10;;;;;;5140735;27;45257;-75
2022/09/03 11:27:20;;;;;;;1.67;1.10;;;23.60;62.00;;;;;;5143609;27;45494;-74
2022/09/03 11:29:51;;;;;;;2.78;1.20;;;23.70;62.10;;;;;;5145685;27;47661;-74
2022/09/03 11:32:19;;;;;;;1.58;0.90;;;23.70;62.20;;;;;;5148938;27;45314;-74
2022/09/03 11:34:48;;;;;;;1.20;1.08;;;23.80;61.90;;;;;;5131637;27;45226;-75
2022/09/03 11:37:20;;;;;;;1.25;1.00;;;23.80;61.00;;;;;;5138077;27;45422;-74
2022/09/03 11:39:54;;;;;;;1.48;0.80;;;23.90;60.60;;;;;;5143336;27;45532;-75
2022/09/03 11:42:27;;;;;;;2.45;0.82;;;23.90;60.30;;;;;;5144632;27;45272;-74
2022/09/03 11:44:59;;;;;;;2.17;0.80;;;24.00;60.90;;;;;;5136893;27;45426;-74
2022/09/03 11:47:38;;;;;;;1.25;0.90;;;24.10;60.00;;;;;;5140290;27;45469;-73
2022/09/03 11:50:08;;;;;;;0.85;0.85;;;24.10;59.70;;;;;;5136153;27;46389;-74
2022/09/03 11:52:39;;;;;;;0.57;0.57;;;24.30;59.90;;;;;;5146335;27;45312;-75
2022/09/03 11:55:06;;;;;;;0.70;0.65;;;24.30;58.90;;;;;;5142570;27;45251;-75
2022/09/03 11:57:34;;;;;;;0.50;0.50;;;24.30;58.80;;;;;;5144047;27;45489;-75
2022/09/03 12:00:10;;;;;;;0.50;0.50;;;24.20;58.40;;;;;;5147508;27;45663;-74
2022/09/03 12:02:38;;;;;;;2.92;0.55;;;24.20;59.40;;;;;;5147076;27;45512;-75
2022/09/03 12:05:18;;;;;;;0.88;0.65;;;24.20;58.00;;;;;;5143433;27;45277;-76
2022/09/03 12:07:53;;;;;;;1.95;0.52;;;24.20;58.10;;;;;;5143027;27;45324;-76
2022/09/03 12:10:27;;;;;;;0.40;0.40;;;24.30;57.80;;;;;;5147835;27;45596;-75
2022/09/03 12:13:02;;;;;;;0.60;0.47;;;24.30;57.60;;;;;;5144202;27;45437;-75
2022/09/03 12:15:42;;;;;;;0.40;0.40;;;24.30;57.20;;;;;;5143262;27;45422;-75
2022/09/03 12:18:19;;;;;;;0.52;0.50;;;24.40;57.40;;;;;;5137945;27;45228;-75
2022/09/03 12:20:49;;;;;;;0.63;0.52;;;24.40;56.60;;;;;;5141230;27;45409;-74
2022/09/03 12:23:27;;;;;;;0.82;0.43;;;24.50;56.20;;;;;;5138360;27;45459;-74
2022/09/03 12:25:53;;;;;;;0.52;0.50;;;24.60;56.20;;;;;;5142442;27;45521;-74
2022/09/03 12:28:25;;;;;;;0.40;0.40;;;24.70;55.60;;;;;;5147826;27;45519;-75
2022/09/03 12:30:52;;;;;;;0.85;0.50;;;24.80;55.70;;;;;;5147905;27;46824;-74
2022/09/03 12:33:19;;;;;;;0.50;0.50;;;24.80;55.20;;;;;;5150161;27;45342;-75
2022/09/03 12:35:57;;;;;;;0.60;0.60;;;24.70;55.40;;;;;;5148424;27;45262;-74
2022/09/03 12:38:24;;;;;;;0.40;0.40;;;24.70;55.30;;;;;;5148095;27;45571;-76
2022/09/03 12:40:51;;;;;;;0.88;0.52;;;24.70;55.10;;;;;;5148117;27;47582;-74
2022/09/03 12:43:18;;;;;;;0.57;0.52;;;24.70;54.90;;;;;;5142434;27;45433;-74
2022/09/03 12:45:46;;;;;;;0.50;0.50;;;24.70;55.00;;;;;;5140571;27;45323;-74
2022/09/03 12:48:15;;;;;;;2.25;0.95;;;24.70;54.80;;;;;;5148556;27;45397;-74
2022/09/03 12:50:42;;;;;;;0.80;0.80;;;24.80;54.90;;;;;;5147235;27;45513;-74
2022/09/03 12:53:11;;;;;;;0.95;0.88;;;24.80;55.50;;;;;;5148130;27;45373;-74
2022/09/03 12:55:41;;;;;;;0.65;0.60;;;24.90;54.60;;;;;;5145580;27;44898;-74
2022/09/03 12:58:09;;;;;;;4.93;3.65;;;25.00;54.40;;;;;;5147364;27;45341;-74
2022/09/03 13:00:39;;;;;;;4.03;2.70;;;25.20;54.30;;;;;;5148076;27;45438;-74
2022/09/03 13:03:07;;;;;;;2.80;2.60;;;25.20;54.10;;;;;;5143474;27;45490;-74